Time;durP1;ratioP1;P1;durP2;ratioP2;P2;SDS_P1;SDS_P2;PMS_P1;PMS_P2;Temp;Humidity;BMP_temperature;BMP_pressure;BME280_temperature;BME280_humidity;BME280_pressure;Samples;Min_cycle;Max_cycle;Signal;HPM_P1;HPM_P2
2023/09/17 00:01:53;;;;;;;8.02;5.82;;;;;;;29.58;90.52;96054.78;6126932;23;20044;-91
2023/09/17 00:04:23;;;;;;;8.65;5.68;;;;;;;29.06;93.44;96053.56;6128943;23;20342;-91
2023/09/17 00:06:49;;;;;;;7.90;6.13;;;;;;;29.30;94.61;96049.03;6128907;23;20002;-90
2023/09/17 00:09:14;;;;;;;9.02;6.45;;;;;;;29.37;93.49;96046.81;6129794;23;20006;-91
2023/09/17 00:11:40;;;;;;;8.20;6.53;;;;;;;29.30;96.30;96050.94;6129613;23;20010;-90
2023/09/17 00:14:06;;;;;;;9.18;6.25;;;;;;;29.43;92.65;96052.19;6147066;23;20037;-91
2023/09/17 00:16:31;;;;;;;12.05;6.65;;;;;;;28.97;97.28;96049.78;6125123;23;20016;-91
2023/09/17 00:18:58;;;;;;;8.48;6.30;;;;;;;29.07;95.55;96049.75;6143080;23;20024;-91
2023/09/17 00:21:23;;;;;;;7.00;6.05;;;;;;;29.17;95.59;96046.97;6130806;23;20009;-90
2023/09/17 00:26:57;;;;;;;9.40;6.70;;;;;;;28.56;100.00;96053.53;6162481;23;20015;-90
2023/09/17 00:29:23;;;;;;;7.97;6.10;;;;;;;28.67;100.00;96046.19;6147181;23;20100;-91
2023/09/17 00:31:50;;;;;;;8.95;6.90;;;;;;;28.40;100.00;96041.19;6104998;23;20234;-91
2023/09/17 00:34:15;;;;;;;8.00;5.95;;;;;;;28.73;99.13;96036.94;6129267;23;20009;-91
2023/09/17 00:36:50;;;;;;;7.57;6.18;;;;;;;28.98;99.44;96033.28;6152406;23;20005;-89
2023/09/17 00:39:16;;;;;;;8.40;6.30;;;;;;;29.50;96.65;96034.53;6128480;23;20005;-91
2023/09/17 00:41:49;;;;;;;9.23;6.60;;;;;;;29.50;91.94;96034.53;6128830;23;20012;-90
2023/09/17 00:44:16;;;;;;;7.75;6.53;;;;;;;29.06;99.24;96032.72;6153900;23;20009;-90
2023/09/17 00:46:42;;;;;;;10.73;6.38;;;;;;;29.41;92.82;96038.97;6129311;23;20016;-91
2023/09/17 00:49:13;;;;;;;9.45;6.35;;;;;;;29.11;96.56;96038.09;6105308;23;20009;-91
2023/09/17 00:51:55;;;;;;;9.52;6.75;;;;;;;28.81;100.00;96044.50;6104181;23;20738;-91
2023/09/17 00:54:23;;;;;;;8.40;6.72;;;;;;;28.90;97.47;96040.09;6129713;23;20006;-90
2023/09/17 00:56:51;;;;;;;9.20;6.43;;;;;;;28.34;100.00;96040.38;6129035;23;20236;-91
2023/09/17 00:59:17;;;;;;;10.15;6.78;;;;;;;28.50;100.00;96045.72;6103521;23;20019;-91
2023/09/17 01:01:43;;;;;;;10.52;6.57;;;;;;;28.56;100.00;96042.72;6159470;23;20020;-91
2023/09/17 01:04:10;;;;;;;10.45;7.07;;;;;;;29.01;100.00;96035.47;6131456;23;20006;-91
2023/09/17 01:06:38;;;;;;;10.43;7.05;;;;;;;29.09;96.33;96037.56;6129393;23;20010;-91
2023/09/17 01:09:05;;;;;;;15.40;7.13;;;;;;;28.93;99.99;96035.22;6106143;23;20009;-91
2023/09/17 01:11:32;;;;;;;10.48;7.70;;;;;;;29.28;97.59;96028.78;6105665;23;20453;-91
2023/09/17 01:14:15;;;;;;;9.15;6.65;;;;;;;29.07;97.53;96028.09;6153971;23;20010;-91
2023/09/17 01:16:45;;;;;;;9.65;6.95;;;;;;;29.15;96.07;96029.41;6103827;23;20085;-91
2023/09/17 01:19:29;;;;;;;8.15;6.63;;;;;;;29.11;100.00;96031.88;6103089;23;20012;-90
2023/09/17 01:22:01;;;;;;;8.23;6.75;;;;;;;29.41;95.64;96038.13;6153985;23;20005;-91
2023/09/17 01:24:52;;;;;;;8.40;6.72;;;;;;;29.21;97.28;96036.38;6129671;23;20005;-90
2023/09/17 01:27:19;;;;;;;8.13;6.20;;;;;;;29.44;93.91;96032.13;6104861;23;20014;-91
2023/09/17 01:29:55;;;;;;;9.13;7.47;;;;;;;29.50;93.93;96036.44;6105001;23;20017;-91
2023/09/17 01:32:20;;;;;;;8.02;6.13;;;;;;;28.93;99.13;96038.72;6129299;23;20016;-89
2023/09/17 01:34:52;;;;;;;8.55;6.97;;;;;;;29.19;96.13;96036.69;6128655;23;20005;-90
2023/09/17 01:37:28;;;;;;;9.13;6.95;;;;;;;29.42;95.96;96029.72;6128787;23;20040;-91
2023/09/17 01:40:06;;;;;;;12.60;6.85;;;;;;;29.18;100.00;96034.28;6105216;23;20016;-90
2023/09/17 01:42:33;;;;;;;8.13;6.30;;;;;;;29.29;95.55;96036.59;6129911;23;20009;-90
2023/09/17 01:45:00;;;;;;;8.70;6.88;;;;;;;28.99;98.41;96039.50;6105562;23;20009;-91
2023/09/17 01:47:27;;;;;;;11.73;7.60;;;;;;;29.23;95.91;96037.72;6172134;23;20021;-90
2023/09/17 01:49:57;;;;;;;9.07;7.32;;;;;;;29.32;95.35;96040.66;6127307;23;20024;-90
2023/09/17 01:52:26;;;;;;;8.75;7.28;;;;;;;29.03;100.00;96048.72;6136818;23;20338;-90
2023/09/17 01:54:52;;;;;;;8.70;7.20;;;;;;;28.47;100.00;96051.69;6106312;23;20010;-90
2023/09/17 01:57:18;;;;;;;8.93;7.72;;;;;;;28.53;100.00;96048.69;6107073;23;20008;-91
2023/09/17 01:59:45;;;;;;;9.68;7.43;;;;;;;29.13;99.03;96046.72;6132028;23;20012;-90
2023/09/17 02:02:10;;;;;;;9.60;7.72;;;;;;;28.66;100.00;96055.41;6160449;23;20005;-90
2023/09/17 02:04:36;;;;;;;8.85;7.07;;;;;;;29.01;100.00;96050.91;6134078;23;20001;-90
2023/09/17 02:07:02;;;;;;;8.68;7.28;;;;;;;29.28;97.71;96042.31;6132858;23;20036;-90
2023/09/17 02:09:27;;;;;;;10.25;6.93;;;;;;;29.37;95.88;96049.53;6134055;23;20012;-91
2023/09/17 02:11:53;;;;;;;9.65;7.38;;;;;;;29.06;100.00;96056.28;6133300;23;20009;-90
2023/09/17 02:14:27;;;;;;;9.07;7.20;;;;;;;28.86;100.00;96049.06;6134047;23;20009;-91
2023/09/17 02:16:54;;;;;;;10.35;7.00;;;;;;;28.16;100.00;96058.00;6133509;23;20477;-91
2023/09/17 02:19:20;;;;;;;8.73;7.53;;;;;;;28.08;100.00;96055.06;6132853;23;20017;-91
2023/09/17 02:21:45;;;;;;;10.13;7.72;;;;;;;28.32;100.00;96060.66;6157369;23;20303;-91
2023/09/17 02:24:13;;;;;;;9.75;7.20;;;;;;;28.46;100.00;96052.78;6133053;23;20029;-91
2023/09/17 02:26:39;;;;;;;8.70;7.40;;;;;;;28.88;100.00;96050.41;6133445;23;20044;-89
2023/09/17 02:29:06;;;;;;;10.88;7.15;;;;;;;29.40;96.87;96058.19;6108715;23;20045;-91
2023/09/17 02:31:31;;;;;;;9.10;7.38;;;;;;;29.42;98.29;96056.00;6122724;23;20079;-91
2023/09/17 02:33:57;;;;;;;10.75;8.82;;;;;;;29.35;97.44;96056.34;6143586;23;20025;-91
2023/09/17 02:36:23;;;;;;;10.60;8.02;;;;;;;29.54;96.72;96059.16;6133699;23;20008;-91
2023/09/17 02:38:48;;;;;;;8.77;7.88;;;;;;;29.30;97.94;96057.16;6133541;23;20075;-92
2023/09/17 02:41:14;;;;;;;9.85;8.15;;;;;;;29.08;100.00;96063.03;6109717;23;20002;-91
2023/09/17 02:43:39;;;;;;;11.13;8.10;;;;;;;29.17;99.29;96059.72;6139902;23;20077;-91
2023/09/17 02:46:06;;;;;;;9.25;6.82;;;;;;;28.96;100.00;96059.03;6145529;23;20005;-91
2023/09/17 02:48:35;;;;;;;12.02;8.00;;;;;;;28.92;100.00;96052.56;6113770;23;20005;-91
2023/09/17 02:51:02;;;;;;;9.18;7.47;;;;;;;29.01;100.00;96053.63;6129283;23;20016;-91
2023/09/17 02:53:28;;;;;;;8.70;7.32;;;;;;;29.16;99.87;96056.19;6132641;23;20001;-90
2023/09/17 02:55:54;;;;;;;10.93;7.57;;;;;;;29.51;97.29;96055.13;6108671;23;20009;-90
2023/09/17 02:58:20;;;;;;;7.75;6.72;;;;;;;29.11;99.17;96048.13;6107802;23;20009;-91
2023/09/17 03:00:46;;;;;;;10.80;7.70;;;;;;;28.73;100.00;96061.31;6107708;23;20520;-91
2023/09/17 03:03:12;;;;;;;9.77;7.25;;;;;;;29.36;96.46;96049.81;6106414;23;19997;-91
2023/09/17 03:05:40;;;;;;;13.02;7.47;;;;;;;29.63;94.94;96051.25;6129098;23;20017;-90
2023/09/17 03:08:09;;;;;;;9.60;7.60;;;;;;;29.28;97.42;96043.13;6129739;23;20008;-91
2023/09/17 03:10:41;;;;;;;9.40;7.10;;;;;;;29.29;98.66;96042.00;6104347;23;20346;-91
2023/09/17 03:13:12;;;;;;;8.77;7.10;;;;;;;29.32;97.56;96037.94;6130159;23;20430;-91
2023/09/17 03:15:39;;;;;;;8.02;6.95;;;;;;;29.35;95.03;96038.19;6105525;23;20005;-91
2023/09/17 03:18:05;;;;;;;10.75;7.43;;;;;;;29.27;97.29;96037.97;6128864;23;20040;-91
2023/09/17 03:20:33;;;;;;;10.48;7.57;;;;;;;29.34;97.40;96036.56;6105052;23;20012;-90
2023/09/17 03:23:04;;;;;;;10.98;7.57;;;;;;;29.46;98.97;96038.09;6128808;23;20350;-91
2023/09/17 03:25:32;;;;;;;10.93;7.88;;;;;;;29.37;94.27;96041.41;6129908;23;20002;-90
2023/09/17 03:28:01;;;;;;;10.88;7.88;;;;;;;29.17;96.73;96044.25;6128853;23;20109;-91
2023/09/17 03:30:27;;;;;;;10.25;7.85;;;;;;;29.56;95.06;96051.53;6129525;23;20029;-91
2023/09/17 03:32:54;;;;;;;9.57;7.43;;;;;;;29.19;96.97;96058.34;6105540;23;20028;-91
2023/09/17 03:35:22;;;;;;;10.02;8.40;;;;;;;29.40;97.38;96055.47;6128459;23;20018;-91
2023/09/17 03:37:47;;;;;;;8.85;6.68;;;;;;;29.40;96.40;96060.91;6104419;23;20020;-91
2023/09/17 03:40:14;;;;;;;8.80;6.95;;;;;;;29.06;99.82;96058.97;6131349;23;20005;-90
2023/09/17 03:42:43;;;;;;;9.05;7.00;;;;;;;29.13;99.02;96068.41;6107112;23;20033;-91
2023/09/17 03:45:11;;;;;;;8.70;6.97;;;;;;;29.03;97.70;96064.94;6107794;23;20067;-90
2023/09/17 03:47:41;;;;;;;10.32;7.05;;;;;;;29.59;94.28;96073.50;6131308;23;20085;-91
2023/09/17 03:50:11;;;;;;;8.77;6.30;;;;;;;29.77;90.65;96063.84;6131367;23;20044;-90
2023/09/17 03:52:38;;;;;;;9.77;7.47;;;;;;;29.74;91.97;96075.25;6107583;23;20340;-90
2023/09/17 03:55:05;;;;;;;10.10;7.07;;;;;;;29.88;92.17;96070.00;6106853;23;20012;-91
2023/09/17 03:57:33;;;;;;;9.45;7.63;;;;;;;29.80;90.65;96071.41;6155168;23;20008;-91
2023/09/17 03:59:59;;;;;;;8.13;6.70;;;;;;;29.77;92.01;96074.69;6109898;23;20010;-91
2023/09/17 04:02:25;;;;;;;8.32;7.10;;;;;;;29.72;91.63;96071.22;6138833;23;20041;-91
2023/09/17 04:04:51;;;;;;;12.27;7.32;;;;;;;29.69;89.26;96072.59;6119388;23;20013;-91
2023/09/17 04:07:17;;;;;;;9.43;7.10;;;;;;;29.32;95.40;96067.72;6106373;23;20005;-91
2023/09/17 04:09:44;;;;;;;9.18;7.13;;;;;;;29.08;98.05;96070.34;6155030;23;20088;-90
2023/09/17 04:12:11;;;;;;;8.80;7.07;;;;;;;29.19;99.02;96058.34;6130632;23;20009;-91
2023/09/17 04:14:36;;;;;;;8.70;7.25;;;;;;;29.52;94.81;96055.94;6131113;23;20005;-91
2023/09/17 04:17:05;;;;;;;8.50;7.07;;;;;;;29.43;92.70;96050.28;6130169;23;20025;-90
2023/09/17 04:19:32;;;;;;;9.15;7.20;;;;;;;29.24;94.03;96052.06;6131107;23;20028;-91
2023/09/17 04:21:58;;;;;;;10.40;7.25;;;;;;;28.46;100.00;96060.91;6106556;23;20327;-90
2023/09/17 04:24:25;;;;;;;9.63;7.57;;;;;;;28.45;100.00;96064.72;6132178;23;20005;-91
2023/09/17 04:26:52;;;;;;;13.07;8.00;;;;;;;28.53;100.00;96067.63;6106817;23;20012;-91
2023/09/17 04:29:19;;;;;;;11.00;7.88;;;;;;;28.67;100.00;96062.41;6131194;23;20036;-90
2023/09/17 04:31:46;;;;;;;12.38;8.32;;;;;;;28.70;100.00;96074.59;6133059;23;20012;-91
2023/09/17 04:34:13;;;;;;;10.68;8.32;;;;;;;28.85;99.77;96069.91;6107965;23;20010;-91
2023/09/17 04:36:39;;;;;;;9.45;7.53;;;;;;;28.72;100.00;96073.22;6147750;23;20061;-91
2023/09/17 04:39:09;;;;;;;11.00;8.30;;;;;;;28.51;100.00;96072.53;6137023;23;20005;-90
2023/09/17 04:41:35;;;;;;;8.82;7.53;;;;;;;28.08;100.00;96087.50;6105447;23;20005;-91
2023/09/17 04:44:03;;;;;;;10.38;7.47;;;;;;;28.24;100.00;96082.88;6131514;23;20944;-91
2023/09/17 04:46:29;;;;;;;8.85;7.90;;;;;;;28.01;100.00;96078.88;6106878;23;20113;-91
2023/09/17 04:48:55;;;;;;;8.88;7.78;;;;;;;27.63;100.00;96087.28;6105836;23;20016;-91
2023/09/17 04:51:21;;;;;;;9.18;7.80;;;;;;;27.71;100.00;96085.91;6106061;23;20010;-91
2023/09/17 04:53:47;;;;;;;9.95;8.57;;;;;;;27.86;100.00;96091.31;6131139;23;20437;-90
2023/09/17 04:56:13;;;;;;;10.63;8.55;;;;;;;28.27;100.00;96087.72;6106320;23;20006;-91
2023/09/17 04:58:39;;;;;;;11.60;8.30;;;;;;;28.46;100.00;96087.94;6131451;23;20009;-90
2023/09/17 05:01:06;;;;;;;11.93;8.18;;;;;;;28.63;100.00;96085.72;6130453;23;20430;-91
2023/09/17 05:03:33;;;;;;;11.88;8.48;;;;;;;29.21;99.03;96091.38;6131579;23;20025;-91
2023/09/17 05:05:58;;;;;;;12.75;9.48;;;;;;;29.02;100.00;96095.84;6131548;23;20551;-91
2023/09/17 05:08:24;;;;;;;11.75;9.82;;;;;;;28.35;100.00;96103.38;6106512;23;20438;-91
2023/09/17 05:10:50;;;;;;;12.30;9.75;;;;;;;28.25;100.00;96098.81;6131024;23;20009;-91
2023/09/17 05:13:18;;;;;;;12.13;10.13;;;;;;;28.53;100.00;96091.97;6107936;23;20006;-91
2023/09/17 05:15:46;;;;;;;12.02;9.90;;;;;;;28.45;100.00;96094.47;6108650;23;20009;-90
2023/09/17 05:18:11;;;;;;;10.95;9.07;;;;;;;28.52;100.00;96094.97;6135256;23;20012;-90
2023/09/17 05:20:44;;;;;;;10.90;9.30;;;;;;;28.18;100.00;96098.28;6133965;23;20429;-90
2023/09/17 05:23:12;;;;;;;11.45;9.23;;;;;;;28.25;100.00;96096.09;6130350;23;20063;-91
2023/09/17 05:25:38;;;;;;;10.48;9.32;;;;;;;28.70;100.00;96097.03;6130702;23;20081;-91
2023/09/17 05:28:06;;;;;;;10.07;8.30;;;;;;;28.61;100.00;96096.81;6129948;23;20084;-91
2023/09/17 05:30:34;;;;;;;11.05;8.55;;;;;;;28.81;100.00;96093.22;6131039;23;20028;-91
2023/09/17 05:33:00;;;;;;;11.30;8.55;;;;;;;28.46;100.00;96091.47;6130235;23;20009;-92
2023/09/17 05:35:26;;;;;;;10.70;8.57;;;;;;;28.10;100.00;96102.38;6130638;23;20005;-91
2023/09/17 05:37:52;;;;;;;10.25;8.73;;;;;;;28.09;100.00;96108.84;6130013;23;20002;-91
2023/09/17 05:40:18;;;;;;;12.32;8.73;;;;;;;27.79;100.00;96106.19;6130473;23;20001;-91
2023/09/17 05:42:44;;;;;;;10.43;8.68;;;;;;;28.24;100.00;96113.44;6105568;23;20005;-91
2023/09/17 05:45:10;;;;;;;12.52;9.70;;;;;;;28.42;100.00;96107.44;6130559;23;20012;-91
2023/09/17 05:47:36;;;;;;;10.30;9.00;;;;;;;28.63;100.00;96107.34;6105315;23;20009;-91
2023/09/17 05:50:01;;;;;;;10.05;8.75;;;;;;;28.90;100.00;96110.47;6130986;23;20020;-91
2023/09/17 05:52:32;;;;;;;12.55;9.45;;;;;;;29.05;99.52;96111.53;6129983;23;20012;-91
2023/09/17 05:55:00;;;;;;;12.57;9.43;;;;;;;28.87;100.00;96107.50;6106745;23;20028;-91
2023/09/17 05:57:26;;;;;;;10.95;8.65;;;;;;;29.15;100.00;96106.03;6108065;23;20072;-90
2023/09/17 05:59:52;;;;;;;12.93;8.60;;;;;;;29.85;92.78;96105.81;6132829;23;20005;-91
2023/09/17 06:02:37;;;;;;;11.82;9.27;;;;;;;29.56;97.60;96106.53;6132601;23;20009;-91
2023/09/17 06:05:04;;;;;;;11.05;8.75;;;;;;;29.98;90.84;96112.44;6107927;23;20009;-91
2023/09/17 06:07:30;;;;;;;10.15;8.35;;;;;;;30.29;88.93;96124.63;6129351;23;20544;-91
2023/09/17 06:09:55;;;;;;;11.18;8.73;;;;;;;30.92;82.79;96109.25;6129923;23;20005;-91
2023/09/17 06:12:21;;;;;;;11.10;8.05;;;;;;;30.73;86.04;96120.88;6130221;23;20036;-90
2023/09/17 06:14:46;;;;;;;9.38;7.43;;;;;;;31.04;82.27;96115.06;6130220;23;20036;-91
2023/09/17 06:17:13;;;;;;;9.70;8.27;;;;;;;30.35;88.21;96116.44;6129834;23;19998;-91
2023/09/17 06:19:38;;;;;;;13.50;8.55;;;;;;;30.81;86.01;96118.63;6130487;23;20006;-91
2023/09/17 06:22:04;;;;;;;9.05;7.20;;;;;;;31.49;77.88;96115.53;6129862;23;20452;-91
2023/09/17 06:24:30;;;;;;;13.82;8.10;;;;;;;30.84;80.73;96112.63;6130652;23;20013;-90
2023/09/17 06:26:55;;;;;;;11.40;7.72;;;;;;;31.40;78.74;96120.03;6129431;23;20008;-90
2023/09/17 06:29:22;;;;;;;11.27;7.88;;;;;;;31.57;79.54;96125.72;6131061;23;20461;-91
2023/09/17 06:31:48;;;;;;;12.48;7.45;;;;;;;31.78;74.86;96125.38;6110074;23;20090;-91
2023/09/17 06:34:13;;;;;;;9.32;7.28;;;;;;;31.41;82.10;96129.78;6139490;23;20025;-91
2023/09/17 06:36:39;;;;;;;10.55;7.53;;;;;;;31.22;79.85;96124.31;6108895;23;20005;-91
2023/09/17 06:39:06;;;;;;;8.30;7.38;;;;;;;31.22;79.54;96133.28;6104658;23;20017;-91
2023/09/17 06:41:33;;;;;;;8.95;7.85;;;;;;;30.66;89.66;96133.19;6153044;23;19989;-91
2023/09/17 06:43:58;;;;;;;9.52;7.93;;;;;;;30.29;91.79;96130.06;6105982;23;20001;-91
2023/09/17 06:46:25;;;;;;;10.80;7.15;;;;;;;29.88;99.43;96131.50;6105667;23;20006;-91
2023/09/17 06:48:52;;;;;;;10.70;6.78;;;;;;;30.51;89.39;96132.25;6106323;23;20001;-91
2023/09/17 06:51:18;;;;;;;9.95;8.57;;;;;;;30.65;91.50;96136.97;6156467;23;20001;-91
2023/09/17 06:53:48;;;;;;;9.68;7.93;;;;;;;31.01;84.94;96137.38;6130689;23;20350;-90
2023/09/17 06:56:16;;;;;;;9.00;7.30;;;;;;;31.36;82.98;96138.03;6130535;23;20299;-90
2023/09/17 06:58:43;;;;;;;10.05;7.57;;;;;;;31.02;81.92;96136.28;6129065;23;20036;-91
2023/09/17 07:01:09;;;;;;;10.48;8.13;;;;;;;31.53;81.34;96134.78;6140615;23;20024;-90
2023/09/17 07:03:34;;;;;;;15.50;9.02;;;;;;;30.95;87.41;96139.38;6143531;23;20033;-90
2023/09/17 07:06:02;;;;;;;9.23;7.60;;;;;;;31.10;84.69;96135.63;6163165;23;20009;-90
2023/09/17 07:08:27;;;;;;;10.57;8.50;;;;;;;31.81;79.89;96120.16;6131819;23;20016;-91
2023/09/17 07:10:53;;;;;;;9.60;8.43;;;;;;;32.03;78.17;96119.56;6132248;23;20001;-90
2023/09/17 07:13:19;;;;;;;11.10;7.82;;;;;;;32.62;77.18;96117.09;6133386;23;20001;-91
2023/09/17 07:15:44;;;;;;;10.50;7.78;;;;;;;33.25;72.00;96110.88;6135689;23;20005;-90
2023/09/17 07:18:12;;;;;;;12.15;8.30;;;;;;;32.34;72.85;96116.28;6134537;23;20128;-87
2023/09/17 07:20:37;;;;;;;9.63;8.63;;;;;;;32.83;72.74;96128.38;6108033;23;20080;-87
2023/09/17 07:23:03;;;;;;;9.68;8.18;;;;;;;33.25;66.02;96134.59;6131949;23;20001;-88
2023/09/17 07:25:29;;;;;;;9.43;7.28;;;;;;;33.88;65.84;96124.69;6132177;23;20009;-87
2023/09/17 07:27:55;;;;;;;11.02;8.38;;;;;;;34.82;55.79;96125.47;6156106;23;20007;-87
2023/09/17 07:30:20;;;;;;;10.43;8.45;;;;;;;34.68;55.95;96131.06;6106922;23;20021;-87
2023/09/17 07:32:46;;;;;;;9.90;7.38;;;;;;;36.00;53.25;96136.34;6137686;23;20032;-88
2023/09/17 07:35:19;;;;;;;9.65;7.45;;;;;;;36.18;49.95;96132.44;6130764;23;20013;-87
2023/09/17 07:37:45;;;;;;;11.30;8.18;;;;;;;36.53;48.44;96132.38;6105672;23;20017;-88
2023/09/17 07:40:11;;;;;;;12.75;8.20;;;;;;;36.46;48.23;96132.06;6106769;23;20497;-88
2023/09/17 07:42:36;;;;;;;12.25;7.75;;;;;;;37.53;46.28;96138.25;6131906;23;20334;-88
2023/09/17 07:45:03;;;;;;;8.75;7.40;;;;;;;36.12;46.97;96139.25;6132911;23;20021;-87
2023/09/17 07:47:30;;;;;;;7.47;6.38;;;;;;;36.90;45.59;96141.69;6138723;23;20152;-88
2023/09/17 07:49:56;;;;;;;9.80;7.18;;;;;;;36.73;45.92;96150.81;6112577;23;20001;-87
2023/09/17 07:52:21;;;;;;;9.05;6.95;;;;;;;36.92;46.64;96146.81;6131152;23;20007;-87
2023/09/17 07:54:47;;;;;;;8.20;6.10;;;;;;;37.38;44.35;96147.84;6131264;23;20375;-87
2023/09/17 07:57:13;;;;;;;8.02;6.60;;;;;;;37.34;45.48;96149.66;6130188;23;20338;-88
2023/09/17 07:59:39;;;;;;;8.07;6.10;;;;;;;36.37;47.31;96155.91;6129797;23;20010;-87
2023/09/17 08:02:06;;;;;;;8.65;6.20;;;;;;;37.15;46.11;96150.91;6104373;23;20005;-87
2023/09/17 08:04:32;;;;;;;7.38;5.70;;;;;;;34.94;50.51;96153.81;6106305;23;20040;-87
2023/09/17 08:06:57;;;;;;;7.15;5.35;;;;;;;35.43;50.32;96159.19;6128586;23;20013;-87
2023/09/17 08:09:23;;;;;;;8.40;6.30;;;;;;;34.23;62.40;96159.25;6130073;23;20006;-87
2023/09/17 08:11:49;;;;;;;7.55;5.38;;;;;;;35.35;55.34;96160.00;6156506;23;20012;-86
2023/09/17 08:14:15;;;;;;;8.80;6.00;;;;;;;37.10;50.09;96151.13;6131565;23;20060;-87
2023/09/17 08:16:41;;;;;;;6.80;5.70;;;;;;;37.87;47.60;96157.16;6132615;23;20013;-87
2023/09/17 08:19:07;;;;;;;8.18;6.05;;;;;;;37.02;50.03;96152.78;6131985;23;20013;-88
2023/09/17 08:21:33;;;;;;;8.57;5.47;;;;;;;38.72;42.97;96157.75;6155758;23;20319;-88
2023/09/17 08:23:59;;;;;;;7.95;5.45;;;;;;;38.15;46.30;96157.38;6106579;23;20001;-87
2023/09/17 08:26:28;;;;;;;6.57;5.32;;;;;;;38.86;43.69;96158.22;6106853;23;20009;-86
2023/09/17 08:29:00;;;;;;;6.45;5.43;;;;;;;39.38;41.02;96168.53;6107070;23;20002;-87
2023/09/17 08:31:27;;;;;;;6.33;4.77;;;;;;;38.98;39.90;96160.97;6131399;23;20065;-87
2023/09/17 08:33:53;;;;;;;8.82;4.38;;;;;;;40.35;36.49;96169.34;6106881;23;20434;-87
2023/09/17 08:36:21;;;;;;;5.82;4.32;;;;;;;37.42;40.32;96163.31;6106499;23;20005;-87
2023/09/17 08:38:52;;;;;;;9.40;4.93;;;;;;;37.82;40.11;96167.53;6158170;23;20010;-88
2023/09/17 08:41:22;;;;;;;8.15;3.88;;;;;;;38.21;39.02;96161.53;6108066;23;20009;-88
2023/09/17 08:43:53;;;;;;;8.60;4.32;;;;;;;37.60;39.90;96175.00;6138766;23;20006;-88
2023/09/17 08:46:36;;;;;;;5.00;3.78;;;;;;;38.03;38.17;96170.28;6143245;23;20012;-89
2023/09/17 08:49:02;;;;;;;5.32;4.00;;;;;;;38.33;38.25;96173.69;6105916;23;20016;-89
2023/09/17 08:51:34;;;;;;;6.60;3.90;;;;;;;38.44;38.70;96174.91;6131382;23;20007;-89
2023/09/17 08:54:04;;;;;;;6.47;3.83;;;;;;;37.47;39.24;96176.88;6131709;23;20017;-82
2023/09/17 08:56:49;;;;;;;6.10;3.75;;;;;;;37.81;39.00;96174.97;6126454;23;20225;-82
2023/09/17 08:59:36;;;;;;;5.35;3.40;;;;;;;36.92;40.12;96174.25;6102594;23;20009;-83
2023/09/17 09:02:07;;;;;;;6.57;3.72;;;;;;;37.12;39.39;96181.72;6126131;23;20006;-83
2023/09/17 09:04:36;;;;;;;6.55;3.85;;;;;;;37.22;40.46;96181.34;6102445;23;20014;-83
2023/09/17 09:07:03;;;;;;;5.53;3.40;;;;;;;37.63;40.08;96181.75;6102766;23;20112;-83
2023/09/17 09:09:30;;;;;;;5.75;3.65;;;;;;;36.74;41.05;96188.03;6101982;23;20037;-83
2023/09/17 09:11:57;;;;;;;5.45;3.53;;;;;;;37.44;38.70;96177.53;6102027;23;20009;-83
2023/09/17 09:14:23;;;;;;;5.03;3.42;;;;;;;36.69;40.95;96177.25;6101777;23;20005;-82
2023/09/17 09:16:49;;;;;;;6.38;4.30;;;;;;;37.93;40.08;96171.53;6101947;23;20052;-83
2023/09/17 09:19:14;;;;;;;5.53;3.30;;;;;;;39.72;35.67;96182.91;6125861;23;20897;-82
2023/09/17 09:21:40;;;;;;;6.25;3.25;;;;;;;40.27;34.45;96165.56;6125491;23;20009;-81
2023/09/17 09:24:06;;;;;;;5.32;3.60;;;;;;;39.34;36.70;96173.91;6101950;23;20009;-81
2023/09/17 09:26:36;;;;;;;5.90;3.80;;;;;;;39.36;36.89;96166.09;6125501;23;20005;-83
2023/09/17 09:29:04;;;;;;;5.90;3.10;;;;;;;39.43;35.34;96171.03;6126456;23;20005;-81
2023/09/17 09:31:30;;;;;;;5.13;3.17;;;;;;;40.45;34.42;96165.25;6101293;23;20017;-82
2023/09/17 09:33:59;;;;;;;5.38;3.00;;;;;;;40.74;34.17;96158.50;6101908;23;20088;-81
2023/09/17 09:36:28;;;;;;;5.07;3.45;;;;;;;42.52;31.51;96163.50;6124776;23;20006;-81
2023/09/17 09:38:57;;;;;;;4.50;2.97;;;;;;;41.17;32.57;96165.88;6150816;23;20439;-81
2023/09/17 09:41:29;;;;;;;5.32;3.40;;;;;;;41.58;32.15;96169.16;6101470;23;20009;-81
2023/09/17 09:43:56;;;;;;;4.80;3.17;;;;;;;40.63;32.27;96176.75;6126784;23;20100;-81
2023/09/17 09:46:24;;;;;;;4.38;2.78;;;;;;;41.59;31.81;96173.53;6125103;23;20012;-80
2023/09/17 09:49:08;;;;;;;5.43;2.80;;;;;;;40.73;32.15;96170.72;6124130;23;20006;-80
2023/09/17 09:51:36;;;;;;;6.18;3.83;;;;;;;41.96;33.86;96178.66;6151447;23;20445;-82
2023/09/17 09:54:03;;;;;;;5.45;3.60;;;;;;;41.59;34.63;96173.53;6127078;23;20036;-81
2023/09/17 09:56:30;;;;;;;5.20;3.75;;;;;;;42.63;33.09;96172.03;6124839;23;20028;-81
2023/09/17 09:58:57;;;;;;;6.80;3.67;;;;;;;41.48;33.95;96166.97;6125375;23;20406;-82
2023/09/17 10:01:22;;;;;;;5.60;3.75;;;;;;;42.80;32.48;96166.81;6126820;23;20496;-79
2023/09/17 10:03:50;;;;;;;7.43;3.63;;;;;;;42.74;31.34;96171.03;6127247;23;20002;-81
2023/09/17 10:06:17;;;;;;;5.10;3.92;;;;;;;41.34;33.74;96167.44;6123729;23;20346;-81
2023/09/17 10:08:43;;;;;;;5.60;3.38;;;;;;;42.74;32.53;96164.72;6125917;23;20519;-81
2023/09/17 10:11:09;;;;;;;6.28;4.10;;;;;;;43.76;31.28;96164.66;6125791;23;20005;-81
2023/09/17 10:13:42;;;;;;;4.70;3.42;;;;;;;42.76;31.78;96170.66;6124975;23;20040;-81
2023/09/17 10:16:07;;;;;;;4.00;2.97;;;;;;;43.23;31.47;96159.19;6101490;23;20068;-82
2023/09/17 10:18:36;;;;;;;5.13;3.45;;;;;;;42.98;31.29;96152.44;6124865;23;20338;-81
2023/09/17 10:21:02;;;;;;;4.13;2.90;;;;;;;43.73;31.76;96151.56;6125271;23;20028;-81
2023/09/17 10:23:31;;;;;;;4.40;3.40;;;;;;;42.22;33.08;96144.00;6100647;23;20012;-83
2023/09/17 10:25:58;;;;;;;5.25;3.75;;;;;;;41.41;33.29;96151.03;6126244;23;20533;-81
2023/09/17 10:28:25;;;;;;;5.32;3.20;;;;;;;41.19;34.28;96144.25;6100804;23;20438;-81
2023/09/17 10:30:52;;;;;;;16.38;14.23;;;;;;;41.36;33.78;96145.00;6102189;23;20096;-81
2023/09/17 10:33:18;;;;;;;4.60;3.45;;;;;;;41.94;32.86;96144.28;6124227;23;20114;-81
2023/09/17 10:35:44;;;;;;;8.35;7.25;;;;;;;42.57;31.63;96144.66;6125900;23;20009;-82
2023/09/17 10:38:11;;;;;;;5.45;3.72;;;;;;;42.29;31.90;96139.44;6124194;23;20001;-82
2023/09/17 10:40:37;;;;;;;6.13;3.03;;;;;;;42.80;30.87;96125.31;6151859;23;20005;-81
2023/09/17 10:43:07;;;;;;;7.47;3.78;;;;;;;42.31;30.91;96130.78;6124882;23;20088;-83
2023/09/17 10:45:39;;;;;;;6.70;2.83;;;;;;;43.27;29.44;96131.56;6101617;23;20024;-82
2023/09/17 10:48:08;;;;;;;5.78;3.00;;;;;;;43.52;29.99;96120.84;6125073;23;20347;-80
2023/09/17 10:50:35;;;;;;;5.30;2.90;;;;;;;43.27;28.81;96126.81;6101328;23;20032;-81
2023/09/17 10:53:04;;;;;;;5.35;2.78;;;;;;;42.16;29.68;96124.19;6100046;23;20009;-81
2023/09/17 10:55:36;;;;;;;6.43;2.97;;;;;;;42.45;30.41;96122.72;6100484;23;20013;-81
2023/09/17 10:58:23;;;;;;;5.68;3.40;;;;;;;42.60;30.08;96124.56;6100288;23;20013;-81
2023/09/17 11:00:50;;;;;;;12.68;8.07;;;;;;;42.41;27.90;96113.56;6101175;23;20009;-81
2023/09/17 11:03:21;;;;;;;8.15;3.20;;;;;;;40.99;29.08;96118.56;6099914;23;20012;-82
2023/09/17 11:05:48;;;;;;;8.10;2.70;;;;;;;42.21;26.63;96112.00;6124253;23;20045;-81
2023/09/17 11:08:24;;;;;;;6.35;3.25;;;;;;;42.92;27.37;96117.97;6124458;23;20017;-81
2023/09/17 11:10:49;;;;;;;5.30;2.00;;;;;;;41.88;26.91;96121.66;6126581;23;20085;-82
2023/09/17 11:13:15;;;;;;;7.00;2.47;;;;;;;42.14;25.03;96120.97;6123846;23;20037;-82
2023/09/17 11:15:44;;;;;;;9.10;2.28;;;;;;;40.51;27.70;96112.28;6125560;23;20044;-81
2023/09/17 11:18:11;;;;;;;8.63;2.60;;;;;;;43.12;27.53;96113.16;6124138;23;20006;-81
2023/09/17 11:20:58;;;;;;;6.10;2.60;;;;;;;43.50;28.38;96110.16;6125623;23;20001;-81
2023/09/17 11:23:44;;;;;;;6.15;2.72;;;;;;;43.36;28.76;96111.88;6124618;23;20001;-81
2023/09/17 11:26:37;;;;;;;5.53;2.15;;;;;;;42.60;28.23;96112.72;6101317;23;20002;-82
2023/09/17 11:29:07;;;;;;;5.30;2.47;;;;;;;42.59;27.75;96108.34;6128953;23;20100;-81
2023/09/17 11:31:36;;;;;;;6.00;2.78;;;;;;;42.14;28.10;96104.41;6099776;23;20009;-81
2023/09/17 11:34:10;;;;;;;7.30;2.28;;;;;;;42.89;27.04;96102.91;6100101;23;20064;-81
2023/09/17 11:36:36;;;;;;;6.00;2.83;;;;;;;44.05;25.29;96114.34;6123804;23;20005;-81